Time;durP1;ratioP1;P1;durP2;ratioP2;P2;SDS_P1;SDS_P2;PMS_P1;PMS_P2;Temp;Humidity;BMP_temperature;BMP_pressure;BME280_temperature;BME280_humidity;BME280_pressure;Samples;Min_cycle;Max_cycle;Signal;HPM_P1;HPM_P2
2022/05/16 00:03:45;;;;;;;0.55;0.40;;;19.00;57.70;;;;;;20728436;28;20045;-79
2022/05/16 00:13:47;;;;;;;1.55;0.30;;;19.00;57.80;;;;;;20710803;28;20137;-82
2022/05/16 00:23:47;;;;;;;0.52;0.40;;;19.00;57.80;;;;;;20742230;28;20073;-81
2022/05/16 00:33:48;;;;;;;1.13;0.50;;;18.90;57.80;;;;;;20725556;28;20050;-81
2022/05/16 00:43:52;;;;;;;0.80;0.45;;;19.00;57.90;;;;;;20742106;28;20171;-81
2022/05/16 00:53:59;;;;;;;0.40;0.30;;;19.00;57.80;;;;;;20724712;28;20416;-82
2022/05/16 01:14:38;;;;;;;1.55;0.40;;;18.90;57.80;;;;;;20725619;28;20026;-81
2022/05/16 01:24:40;;;;;;;0.50;0.35;;;18.90;57.90;;;;;;20739364;28;20038;-81
2022/05/16 01:34:41;;;;;;;0.45;0.35;;;18.90;58.00;;;;;;20707951;28;20030;-81
2022/05/16 01:44:41;;;;;;;0.57;0.30;;;18.90;58.00;;;;;;20738597;28;20125;-82
2022/05/16 01:54:42;;;;;;;1.00;0.50;;;18.90;58.00;;;;;;20718401;28;20036;-79
2022/05/16 02:04:42;;;;;;;0.73;0.40;;;18.80;58.00;;;;;;20737194;28;20037;-80
2022/05/16 02:14:43;;;;;;;0.50;0.30;;;18.90;58.10;;;;;;20737060;28;20443;-81
2022/05/16 02:24:44;;;;;;;0.52;0.32;;;18.80;58.10;;;;;;20719733;28;20152;-81
2022/05/16 02:34:45;;;;;;;1.08;0.60;;;18.80;58.10;;;;;;20734930;28;20553;-82
2022/05/16 02:44:45;;;;;;;1.15;0.45;;;18.80;58.10;;;;;;20750087;28;20034;-81
2022/05/16 02:54:46;;;;;;;0.85;0.40;;;18.80;58.10;;;;;;20716458;28;20049;-81
2022/05/16 03:04:46;;;;;;;1.02;0.28;;;18.80;58.10;;;;;;20731685;28;20042;-81
2022/05/16 03:14:47;;;;;;;1.30;0.35;;;18.80;58.10;;;;;;20732193;28;20041;-81
2022/05/16 03:24:47;;;;;;;0.93;0.40;;;18.70;58.10;;;;;;20731230;28;20096;-81
2022/05/16 03:34:53;;;;;;;0.50;0.45;;;18.80;58.00;;;;;;20729861;28;20125;-81
2022/05/16 03:44:53;;;;;;;0.37;0.30;;;18.70;57.90;;;;;;20729678;28;20367;-82
2022/05/16 03:54:54;;;;;;;1.37;0.70;;;18.70;57.90;;;;;;20728593;28;20033;-80
2022/05/16 04:04:54;;;;;;;7.32;0.50;;;18.70;57.90;;;;;;20727083;28;20661;-80
2022/05/16 04:14:55;;;;;;;1.73;0.55;;;18.80;58.00;;;;;;20726779;28;20513;-81
2022/05/16 04:24:56;;;;;;;1.58;0.88;;;18.60;57.90;;;;;;20727255;28;20128;-80
2022/05/16 04:34:56;;;;;;;0.68;0.47;;;18.60;57.90;;;;;;20725688;28;20065;-79
2022/05/16 04:44:57;;;;;;;1.05;0.60;;;18.60;57.90;;;;;;20725331;28;20130;-75
2022/05/16 04:54:58;;;;;;;2.55;0.35;;;18.60;58.00;;;;;;20744321;28;20040;-85
2022/05/16 05:04:59;;;;;;;0.70;0.50;;;18.60;58.00;;;;;;20690033;28;20121;-74
2022/05/16 05:14:59;;;;;;;1.17;0.50;;;18.60;58.10;;;;;;20784220;28;20128;-79
2022/05/16 05:25:00;;;;;;;2.17;1.13;;;18.60;58.20;;;;;;20777124;28;20045;-75
2022/05/16 05:35:03;;;;;;;3.95;1.15;;;18.60;58.10;;;;;;20834771;28;20037;-82
2022/05/16 05:45:07;;;;;;;0.97;0.60;;;18.70;58.10;;;;;;20823324;28;20038;-77
2022/05/16 05:55:09;;;;;;;2.03;1.00;;;18.70;58.10;;;;;;20821598;28;20616;-80
2022/05/16 06:05:14;;;;;;;1.65;0.40;;;18.70;58.50;;;;;;20835257;28;20516;-78
2022/05/16 06:15:15;;;;;;;;;;;18.80;58.30;;;;;;20822818;28;20088;-74
2022/05/16 06:25:32;;;;;;;1.80;0.70;;;18.90;58.40;;;;;;20816783;28;20258;-77
2022/05/16 06:35:33;;;;;;;2.53;1.20;;;18.80;58.30;;;;;;20750067;28;20099;-75
2022/05/16 06:45:34;;;;;;;5.93;0.88;;;18.80;58.30;;;;;;20782291;28;20044;-76
2022/05/16 06:55:35;;;;;;;1.33;0.68;;;18.80;58.20;;;;;;20798793;28;20474;-77
2022/05/16 07:05:35;;;;;;;2.05;1.00;;;18.90;58.20;;;;;;20798125;28;20045;-76
2022/05/16 07:15:36;;;;;;;1.73;0.90;;;18.90;58.20;;;;;;21196594;22;20095;-76
2022/05/16 07:35:55;;;;;;;1.10;0.65;;;18.90;58.10;;;;;;20910224;28;20036;-77
2022/05/16 07:45:56;;;;;;;1.77;0.88;;;19.00;58.10;;;;;;20907972;28;20036;-78
2022/05/16 07:55:57;;;;;;;2.53;0.80;;;19.00;58.10;;;;;;20891467;28;20025;-76
2022/05/16 08:05:57;;;;;;;2.08;0.80;;;19.00;58.10;;;;;;20874526;28;20120;-77
2022/05/16 08:15:58;;;;;;;1.58;0.75;;;19.00;58.00;;;;;;20875448;28;20045;-78
2022/05/16 08:26:01;;;;;;;1.33;0.70;;;19.00;58.00;;;;;;20873361;28;20033;-74
2022/05/16 08:46:28;;;;;;;0.90;0.57;;;19.10;58.10;;;;;;20890747;28;20396;-76
2022/05/16 08:56:31;;;;;;;1.38;0.55;;;19.10;58.10;;;;;;20862822;28;20055;-75
2022/05/16 09:06:36;;;;;;;0.80;0.52;;;19.10;58.10;;;;;;20869080;28;20128;-78
2022/05/16 09:17:01;;;;;;;0.87;0.43;;;19.10;58.10;;;;;;20870951;28;20047;-77
2022/05/16 09:27:04;;;;;;;0.68;0.50;;;19.10;58.10;;;;;;20870288;28;20124;-75
2022/05/16 09:37:05;;;;;;;1.23;0.55;;;19.10;58.20;;;;;;20848147;28;20033;-75
2022/05/16 09:47:44;;;;;;;0.80;0.47;;;19.10;58.20;;;;;;20813644;28;20025;-75
2022/05/16 09:57:49;;;;;;;0.85;0.57;;;19.10;58.20;;;;;;20795800;28;20102;-73
2022/05/16 10:07:58;;;;;;;0.70;0.40;;;19.10;58.20;;;;;;20884173;28;20083;-74
2022/05/16 10:18:00;;;;;;;0.68;0.57;;;19.10;58.10;;;;;;20882897;28;20044;-74
2022/05/16 10:28:00;;;;;;;1.25;0.50;;;19.10;58.10;;;;;;20915284;28;20040;-73
2022/05/16 10:38:07;;;;;;;1.52;0.52;;;19.10;58.10;;;;;;20899472;28;20473;-76
2022/05/16 10:48:24;;;;;;;0.88;0.60;;;19.20;58.30;;;;;;20881442;28;20143;-77
2022/05/16 10:58:49;;;;;;;2.80;0.80;;;19.20;58.30;;;;;;20880608;28;20127;-75
2022/05/16 11:09:00;;;;;;;1.07;0.60;;;19.20;58.40;;;;;;20911993;28;20040;-75
2022/05/16 11:19:13;;;;;;;2.72;0.65;;;19.30;58.50;;;;;;20877933;28;20069;-73
2022/05/16 11:29:23;;;;;;;1.40;0.47;;;19.30;58.50;;;;;;20877220;28;20037;-72
2022/05/16 11:39:34;;;;;;;0.80;0.68;;;19.30;58.50;;;;;;20903940;28;20404;-71
2022/05/16 11:49:52;;;;;;;0.95;0.50;;;19.30;58.50;;;;;;20865996;28;20365;-72
2022/05/16 12:00:32;;;;;;;1.45;0.65;;;19.40;58.70;;;;;;20874311;28;20087;-72
2022/05/16 12:10:33;;;;;;;2.20;0.60;;;19.40;58.60;;;;;;20872724;28;20052;-72
2022/05/16 12:21:01;;;;;;;0.93;0.60;;;19.40;58.60;;;;;;20807186;28;20485;-72
2022/05/16 12:31:04;;;;;;;1.17;0.57;;;19.40;58.60;;;;;;20847331;28;20091;-71
2022/05/16 12:41:44;;;;;;;1.30;0.65;;;19.50;58.60;;;;;;20889618;28;20048;-74
2022/05/16 12:51:47;;;;;;;1.48;0.70;;;19.50;58.60;;;;;;20871205;28;20388;-70
2022/05/16 13:01:54;;;;;;;3.17;0.88;;;19.50;58.60;;;;;;20855854;28;20033;-72
2022/05/16 13:12:25;;;;;;;0.60;0.43;;;19.60;58.70;;;;;;20854496;28;20052;-71
2022/05/16 13:22:26;;;;;;;1.05;0.68;;;19.60;59.00;;;;;;20869561;28;20028;-70
2022/05/16 13:32:29;;;;;;;1.33;0.55;;;19.70;58.80;;;;;;20853616;28;20048;-81
2022/05/16 13:42:32;;;;;;;1.35;0.50;;;19.70;58.80;;;;;;20848409;28;20495;-75
2022/05/16 13:52:39;;;;;;;1.27;0.50;;;19.70;58.80;;;;;;20869790;28;20052;-75
2022/05/16 14:02:40;;;;;;;1.88;0.50;;;19.80;58.90;;;;;;20884049;28;20035;-78
2022/05/16 14:12:49;;;;;;;0.57;0.40;;;19.90;58.90;;;;;;20894854;28;20143;-75
2022/05/16 14:22:51;;;;;;;1.25;0.40;;;20.00;58.80;;;;;;20882633;28;20120;-79
2022/05/16 14:33:00;;;;;;;1.10;0.55;;;20.10;58.80;;;;;;20891168;28;20025;-78
2022/05/16 14:43:06;;;;;;;0.75;0.65;;;20.10;58.70;;;;;;20899064;28;20033;-75
2022/05/16 14:53:12;;;;;;;0.90;0.43;;;20.20;58.70;;;;;;20864786;28;20060;-75
2022/05/16 15:13:32;;;;;;;1.63;0.70;;;20.10;58.80;;;;;;20878546;28;19920;-78
2022/05/16 15:23:33;;;;;;;2.38;0.70;;;20.00;58.90;;;;;;20891054;28;20125;-76
2022/05/16 15:33:34;;;;;;;1.73;0.80;;;20.00;59.00;;;;;;20863564;28;20045;-74
2022/05/16 15:43:34;;;;;;;1.88;1.02;;;20.00;59.00;;;;;;20877122;28;20078;-73
2022/05/16 15:53:35;;;;;;;2.03;1.00;;;20.10;59.10;;;;;;20905449;28;20041;-73
2022/05/16 16:13:57;;;;;;;3.30;0.95;;;20.00;59.20;;;;;;20910524;28;20119;-75
2022/05/16 16:23:58;;;;;;;3.90;1.10;;;20.10;59.50;;;;;;20934859;28;20086;-78
2022/05/16 16:33:58;;;;;;;2.05;1.00;;;20.00;59.60;;;;;;20806118;28;20069;-74
2022/05/16 16:43:59;;;;;;;3.67;1.05;;;20.00;59.70;;;;;;20895424;28;20132;-79
2022/05/16 17:04:18;;;;;;;3.20;1.10;;;20.00;60.00;;;;;;20884425;28;20037;-80
2022/05/16 17:14:19;;;;;;;3.28;1.10;;;20.00;60.20;;;;;;20900135;28;20145;-77
2022/05/16 17:24:20;;;;;;;2.50;1.40;;;20.00;60.40;;;;;;20887349;28;20396;-77
2022/05/16 17:34:20;;;;;;;4.47;1.15;;;20.00;60.50;;;;;;20893489;28;20287;-76
2022/05/16 17:44:22;;;;;;;2.83;1.42;;;20.00;60.60;;;;;;20864527;28;20048;-74
2022/05/16 17:54:25;;;;;;;2.05;1.15;;;20.00;60.80;;;;;;20884197;28;20424;-75
2022/05/16 18:04:25;;;;;;;3.63;1.15;;;20.00;61.00;;;;;;20925259;28;20532;-75
2022/05/16 18:14:26;;;;;;;2.50;0.98;;;20.00;61.20;;;;;;20948637;28;20068;-74
2022/05/16 18:24:26;;;;;;;1.70;1.20;;;20.00;61.40;;;;;;20975290;28;20036;-74
2022/05/16 18:34:27;;;;;;;4.28;1.33;;;20.00;61.70;;;;;;20915700;28;20091;-72
2022/05/16 18:54:46;;;;;;;3.88;1.55;;;20.00;62.10;;;;;;20886668;28;20033;-74
2022/05/16 19:04:47;;;;;;;1.90;1.10;;;20.00;62.40;;;;;;20892831;28;20036;-76
2022/05/16 19:14:47;;;;;;;3.05;1.38;;;19.90;62.40;;;;;;20905732;28;20311;-72
2022/05/16 19:24:48;;;;;;;5.07;1.65;;;19.90;62.40;;;;;;20860921;28;20040;-73
2022/05/16 19:34:49;;;;;;;4.13;1.40;;;19.90;62.40;;;;;;20859987;28;20064;-74
2022/05/16 19:44:50;;;;;;;1.65;1.10;;;19.90;62.30;;;;;;20859209;28;20033;-75
2022/05/16 19:54:51;;;;;;;1.90;1.25;;;19.90;62.20;;;;;;20859207;28;20036;-73
2022/05/16 20:04:53;;;;;;;1.92;1.33;;;19.90;62.20;;;;;;20874441;28;20042;-72
2022/05/16 20:14:54;;;;;;;1.80;1.25;;;19.90;62.20;;;;;;20873169;28;20044;-73
2022/05/16 20:35:20;;;;;;;6.18;1.35;;;19.80;62.20;;;;;;20874174;28;20074;-72
2022/05/16 20:45:22;;;;;;;2.50;1.25;;;19.90;62.20;;;;;;20855559;28;20048;-75
2022/05/16 20:55:25;;;;;;;3.15;1.40;;;19.80;62.20;;;;;;20856341;28;20045;-74
2022/05/16 21:05:26;;;;;;;2.58;1.63;;;19.80;62.20;;;;;;20870924;28;20382;-74
2022/05/16 21:15:27;;;;;;;1.75;1.17;;;19.80;62.20;;;;;;20870701;28;20083;-74
2022/05/16 21:25:27;;;;;;;1.65;1.20;;;19.80;62.10;;;;;;20854090;28;20033;-74
2022/05/16 21:35:28;;;;;;;1.83;1.20;;;19.80;62.20;;;;;;20837272;28;20029;-73
2022/05/16 21:45:30;;;;;;;1.65;1.20;;;19.80;62.10;;;;;;20853375;28;20477;-74
2022/05/16 21:55:31;;;;;;;2.85;1.63;;;19.80;62.10;;;;;;20853037;28;20033;-75
2022/05/16 22:05:33;;;;;;;3.88;1.27;;;19.80;62.20;;;;;;20854719;28;20195;-73
2022/05/16 22:15:34;;;;;;;2.15;1.20;;;19.80;62.20;;;;;;20884501;28;20093;-74
2022/05/16 22:25:36;;;;;;;1.65;1.10;;;19.80;62.20;;;;;;20866757;28;20053;-75
2022/05/16 22:35:36;;;;;;;2.35;1.50;;;19.80;62.20;;;;;;20882365;28;20082;-74
2022/05/16 22:45:37;;;;;;;4.50;1.70;;;19.80;62.30;;;;;;20881420;28;20049;-74
2022/05/16 22:55:37;;;;;;;2.55;1.60;;;19.80;62.40;;;;;;20864783;28;20441;-73
2022/05/16 23:05:38;;;;;;;3.53;2.08;;;19.80;62.60;;;;;;20879828;28;20110;-74
2022/05/16 23:15:39;;;;;;;5.25;2.47;;;19.80;62.70;;;;;;20863802;28;20049;-74
2022/05/16 23:25:39;;;;;;;5.43;2.63;;;19.80;63.00;;;;;;20846488;28;20526;-74
2022/05/16 23:36:12;;;;;;;5.43;2.08;;;19.80;63.30;;;;;;20861035;28;20029;-74
2022/05/16 23:46:00;;;;;;;3.45;2.08;;;19.80;63.60;;;;;;20882696;28;20083;-74
2022/05/16 23:56:02;;;;;;;2.53;2.00;;;19.80;64.10;;;;;;20876665;28;20033;-73
